createdAt,value
2017-02-09T00:00:04.249Z,22.29
2017-02-09T00:01:17.358Z,22.39
2017-02-09T00:02:30.465Z,22.39
2017-02-09T00:03:43.776Z,22.38
2017-02-09T00:04:56.885Z,22.39
2017-02-09T00:06:09.995Z,22.45
2017-02-09T00:07:23.104Z,22.46
2017-02-09T00:08:50.222Z,22.44
2017-02-09T00:10:03.344Z,22.42
2017-02-09T00:11:15.901Z,22.41
2017-02-09T00:12:29.010Z,22.36
2017-02-09T00:13:42.327Z,22.39
2017-02-09T00:14:55.443Z,22.44
2017-02-09T00:16:08.557Z,22.39
2017-02-09T00:17:35.677Z,22.41
2017-02-09T00:18:48.788Z,22.44
2017-02-09T00:20:01.898Z,22.39
2017-02-09T00:21:15.011Z,22.46
2017-02-09T00:22:28.122Z,22.52
2017-02-09T00:23:41.232Z,22.6
2017-02-09T00:24:54.543Z,22.54
2017-02-09T00:26:07.649Z,22.59
2017-02-09T00:27:20.200Z,22.59
2017-02-09T00:28:33.312Z,22.59
2017-02-09T00:29:45.504Z,22.59
2017-02-09T00:30:58.614Z,22.57
2017-02-09T00:32:11.726Z,22.64
2017-02-09T00:33:24.841Z,22.67
2017-02-09T00:34:37.945Z,22.66
2017-02-09T00:35:50.501Z,22.67
2017-02-09T00:38:44.182Z,22.66
2017-02-09T00:39:57.492Z,22.7
2017-02-09T00:41:10.607Z,22.64
2017-02-09T00:42:23.716Z,22.61
2017-02-09T00:43:36.830Z,22.64
2017-02-09T00:44:49.379Z,22.66
2017-02-09T00:46:02.790Z,22.61
2017-02-09T00:47:15.904Z,22.67
2017-02-09T00:48:43.023Z,22.7
2017-02-09T00:49:55.940Z,22.6
2017-02-09T00:51:09.189Z,22.6
2017-02-09T00:52:22.433Z,22.54
2017-02-09T00:53:35.684Z,22.59
2017-02-09T00:54:48.964Z,22.59
2017-02-09T00:56:02.418Z,22.63
2017-02-09T00:57:15.099Z,22.59
2017-02-09T00:58:28.346Z,22.64
2017-02-09T00:59:41.596Z,22.52
2017-02-09T01:00:54.844Z,22.63
2017-02-09T01:02:08.291Z,22.52
2017-02-09T01:03:20.976Z,22.39
2017-02-09T01:04:34.224Z,22.39
2017-02-09T01:05:47.505Z,22.48
2017-02-09T01:07:00.955Z,22.38
2017-02-09T01:09:40.868Z,22.38
2017-02-09T01:10:54.117Z,22.49
2017-02-09T01:12:07.571Z,22.52
2017-02-09T01:13:20.256Z,22.44
2017-02-09T01:14:33.507Z,22.45
2017-02-09T01:15:46.763Z,22.41
2017-02-09T01:17:00.012Z,22.46
2017-02-09T01:18:13.463Z,22.41
2017-02-09T01:19:26.716Z,22.46
2017-02-09T01:20:53.949Z,22.46
2017-02-09T01:22:07.400Z,22.42
2017-02-09T01:23:20.649Z,22.38
2017-02-09T01:24:33.900Z,22.44
2017-02-09T01:25:47.162Z,22.44
2017-02-09T01:26:59.845Z,22.39
2017-02-09T01:28:27.079Z,22.45
2017-02-09T01:29:40.335Z,22.49
2017-02-09T01:30:53.609Z,22.42
2017-02-09T01:32:06.291Z,22.49
2017-02-09T01:33:19.544Z,22.51
2017-02-09T01:34:32.798Z,22.51
2017-02-09T01:35:45.498Z,22.42
2017-02-09T01:36:58.750Z,22.39
2017-02-09T01:38:12.215Z,22.38
2017-02-09T01:39:39.454Z,22.39
2017-02-09T01:40:52.135Z,22.42
2017-02-09T01:42:05.419Z,22.24
2017-02-09T01:43:17.740Z,22.24
2017-02-09T01:44:30.998Z,22.19
2017-02-09T01:45:44.281Z,22.21
2017-02-09T01:46:57.610Z,22.14
2017-02-09T01:48:09.784Z,22.14
2017-02-09T01:49:23.390Z,22.29
2017-02-09T01:50:36.656Z,22.14
2017-02-09T01:51:49.902Z,22.19
2017-02-09T01:53:02.582Z,22.3
2017-02-09T01:54:15.857Z,22.27
2017-02-09T01:55:29.109Z,22.35
2017-02-09T01:56:55.773Z,22.33
2017-02-09T01:58:09.026Z,22.36
2017-02-09T01:59:22.476Z,22.42
2017-02-09T02:00:35.157Z,22.39
2017-02-09T02:01:48.409Z,22.46
2017-02-09T02:03:01.656Z,22.54
2017-02-09T02:04:14.908Z,22.51
2017-02-09T02:05:28.158Z,22.46
2017-02-09T02:06:41.406Z,22.48
2017-02-09T02:07:54.656Z,22.48
2017-02-09T02:09:07.911Z,22.51
2017-02-09T02:10:20.897Z,22.48
2017-02-09T02:11:34.144Z,22.59
2017-02-09T02:13:01.377Z,22.59
2017-02-09T02:14:14.625Z,22.61
2017-02-09T02:15:28.070Z,22.6
2017-02-09T02:16:41.319Z,22.57
2017-02-09T02:17:54.568Z,22.49
2017-02-09T02:19:07.817Z,22.49
2017-02-09T02:20:20.496Z,22.49
2017-02-09T02:21:33.477Z,22.45
2017-02-09T02:22:46.726Z,22.52
2017-02-09T02:23:59.976Z,22.49
2017-02-09T02:25:13.224Z,22.45
2017-02-09T02:26:26.102Z,22.49
2017-02-09T02:27:39.350Z,22.49
2017-02-09T02:28:52.598Z,22.59
2017-02-09T02:30:05.847Z,22.63
2017-02-09T02:31:19.096Z,22.57
2017-02-09T02:32:32.544Z,22.64
2017-02-09T02:33:45.805Z,22.46
2017-02-09T02:34:59.055Z,22.59
2017-02-09T02:36:12.311Z,22.51
2017-02-09T02:37:25.759Z,22.56
2017-02-09T02:38:52.988Z,22.48
2017-02-09T02:40:06.237Z,22.57
2017-02-09T02:41:18.938Z,22.46
2017-02-09T02:44:13.400Z,22.44
2017-02-09T02:45:26.649Z,22.38
2017-02-09T02:46:39.331Z,22.3
2017-02-09T02:47:52.785Z,22.29
2017-02-09T02:49:06.038Z,22.29
2017-02-09T02:50:19.287Z,22.29
2017-02-09T02:51:32.534Z,22.27
2017-02-09T02:52:45.243Z,22.38
2017-02-09T02:53:58.490Z,22.23
2017-02-09T02:55:11.741Z,22.26
2017-02-09T02:56:38.972Z,22.33
2017-02-09T02:57:52.419Z,22.23
2017-02-09T02:59:05.667Z,22.42
2017-02-09T03:00:18.918Z,22.3
2017-02-09T03:01:32.169Z,22.35
2017-02-09T03:02:45.420Z,22.33
2017-02-09T03:03:58.669Z,22.15
2017-02-09T03:05:11.843Z,22.11
2017-02-09T03:06:24.954Z,22.14
2017-02-09T03:07:38.059Z,22.12
2017-02-09T03:08:51.370Z,22.15
2017-02-09T03:10:04.479Z,22.17
2017-02-09T03:11:17.600Z,22.09
2017-02-09T03:12:30.709Z,22.11
2017-02-09T03:13:57.828Z,22.06
2017-02-09T03:15:10.377Z,22.06
2017-02-09T03:16:23.487Z,22.2
2017-02-09T03:17:36.597Z,22.09
2017-02-09T03:18:49.710Z,22.09
2017-02-09T03:20:03.023Z,22.08
2017-02-09T03:21:15.578Z,22.15
2017-02-09T03:22:42.696Z,22.11
2017-02-09T03:23:55.812Z,22.11
2017-02-09T03:25:08.921Z,22.02
2017-02-09T03:26:22.029Z,22.06
2017-02-09T03:27:35.143Z,21.99
2017-02-09T03:28:48.251Z,22.06
2017-02-09T03:30:01.560Z,22.02
2017-02-09T03:31:14.110Z,22.05
2017-02-09T03:32:27.219Z,21.9
2017-02-09T03:33:40.329Z,21.91
2017-02-09T03:34:52.878Z,21.9
2017-02-09T03:36:06.187Z,21.98
2017-02-09T03:37:18.735Z,21.96
2017-02-09T03:38:31.843Z,22.08
2017-02-09T03:39:44.950Z,22.02
2017-02-09T03:40:58.362Z,22.11
2017-02-09T03:43:38.590Z,22.06
2017-02-09T03:45:05.707Z,22.05
2017-02-09T03:46:18.816Z,22.11
2017-02-09T03:47:31.926Z,22.08
2017-02-09T03:48:45.038Z,21.98
2017-02-09T03:49:58.147Z,22.02
2017-02-09T03:51:11.279Z,22.05
2017-02-09T03:52:24.589Z,22.04
2017-02-09T03:53:37.698Z,22.08
2017-02-09T03:54:50.809Z,22.02
2017-02-09T03:56:02.802Z,22.01
2017-02-09T03:57:15.911Z,22.01
2017-02-09T03:58:29.023Z,22.04
2017-02-09T03:59:42.136Z,21.99
2017-02-09T04:00:55.246Z,22.02
2017-02-09T04:02:08.356Z,22.02
2017-02-09T04:03:21.665Z,22.04
2017-02-09T04:04:34.775Z,22.05
2017-02-09T04:05:47.882Z,22.01
2017-02-09T04:07:00.429Z,22.05
2017-02-09T04:08:13.180Z,21.98
2017-02-09T04:09:26.294Z,21.96
2017-02-09T04:10:39.405Z,21.98
2017-02-09T04:11:52.517Z,21.93
2017-02-09T04:13:05.629Z,21.91
2017-02-09T04:14:19.046Z,21.89
2017-02-09T04:15:32.152Z,21.83
2017-02-09T04:16:45.262Z,21.93
2017-02-09T04:17:58.371Z,21.86
2017-02-09T04:19:11.481Z,21.91
2017-02-09T04:20:24.594Z,21.86
2017-02-09T04:21:37.703Z,21.9
2017-02-09T04:22:50.815Z,21.93
2017-02-09T04:24:03.925Z,21.83
2017-02-09T04:26:44.357Z,21.73
2017-02-09T04:27:56.906Z,21.81
2017-02-09T04:29:10.017Z,21.7
2017-02-09T04:30:23.124Z,21.67
2017-02-09T04:31:36.237Z,21.75
2017-02-09T04:32:49.353Z,21.68
2017-02-09T04:34:01.917Z,21.66
2017-02-09T04:35:15.331Z,21.68
2017-02-09T04:36:28.442Z,21.71
2017-02-09T04:37:41.553Z,21.66
2017-02-09T04:38:54.659Z,21.66
2017-02-09T04:40:07.771Z,21.66
2017-02-09T04:41:20.322Z,21.61
2017-02-09T04:42:33.433Z,21.63
2017-02-09T04:43:46.543Z,21.66
2017-02-09T04:44:59.652Z,21.58
2017-02-09T04:46:12.404Z,21.63
2017-02-09T04:47:25.513Z,21.52
2017-02-09T04:48:38.620Z,21.64
2017-02-09T04:49:51.730Z,21.52
2017-02-09T04:51:04.839Z,21.61
2017-02-09T04:52:17.689Z,21.61
2017-02-09T04:53:30.797Z,21.55
2017-02-09T04:54:43.906Z,21.58
2017-02-09T04:55:56.453Z,21.55
2017-02-09T04:57:09.861Z,21.52
2017-02-09T04:58:22.970Z,21.51
2017-02-09T04:59:36.085Z,21.55
2017-02-09T05:00:49.198Z,21.64
2017-02-09T05:02:02.309Z,21.56
2017-02-09T05:03:14.496Z,21.61
2017-02-09T05:04:27.611Z,21.59
2017-02-09T05:05:40.724Z,21.66
2017-02-09T05:06:53.833Z,21.61
2017-02-09T05:08:07.141Z,21.58
2017-02-09T05:09:19.705Z,21.59
2017-02-09T05:10:32.816Z,21.59
2017-02-09T05:11:45.927Z,21.59
2017-02-09T05:12:59.037Z,21.61
2017-02-09T05:14:12.344Z,21.58
2017-02-09T05:15:25.461Z,21.58
2017-02-09T05:16:38.570Z,21.61
2017-02-09T05:17:51.678Z,21.67
2017-02-09T05:19:05.087Z,21.61
2017-02-09T05:20:18.269Z,21.66
2017-02-09T05:21:59.481Z,21.67
2017-02-09T05:23:12.726Z,21.7
2017-02-09T05:24:26.273Z,21.68
2017-02-09T05:25:39.523Z,21.66
2017-02-09T05:26:52.766Z,21.68
2017-02-09T05:28:04.911Z,21.67
2017-02-09T05:29:17.591Z,21.64
2017-02-09T05:30:30.841Z,21.55
2017-02-09T05:31:44.094Z,21.56
2017-02-09T05:32:57.341Z,21.61
2017-02-09T05:34:10.588Z,21.53
2017-02-09T05:35:24.135Z,21.55
2017-02-09T05:36:37.386Z,21.61
2017-02-09T05:37:50.637Z,21.61
2017-02-09T05:39:03.890Z,21.59
2017-02-09T05:40:17.138Z,21.51
2017-02-09T05:41:30.690Z,21.58
2017-02-09T05:42:43.943Z,21.56
2017-02-09T05:43:56.621Z,21.52
2017-02-09T05:45:09.868Z,21.55
2017-02-09T05:46:23.414Z,21.49
2017-02-09T05:47:36.659Z,21.51
2017-02-09T05:49:03.891Z,21.51
2017-02-09T05:50:17.138Z,21.56
2017-02-09T05:51:30.583Z,21.55
2017-02-09T05:52:43.832Z,21.61
2017-02-09T05:53:57.077Z,21.64
2017-02-09T05:55:09.758Z,21.56
2017-02-09T05:56:23.007Z,21.56
2017-02-09T05:57:36.457Z,21.58
2017-02-09T05:58:49.700Z,21.59
2017-02-09T06:00:02.949Z,21.53
2017-02-09T06:01:15.633Z,21.61
2017-02-09T06:02:29.080Z,21.58
2017-02-09T06:03:42.325Z,21.46
2017-02-09T06:04:55.498Z,21.37
2017-02-09T06:06:08.051Z,21.46
2017-02-09T06:07:21.160Z,21.45
2017-02-09T06:08:34.569Z,21.46
2017-02-09T06:09:47.678Z,21.43
2017-02-09T06:11:00.827Z,21.42
2017-02-09T06:12:13.377Z,21.37
2017-02-09T06:13:26.487Z,21.43
2017-02-09T06:14:39.599Z,21.4
2017-02-09T06:15:52.161Z,21.38
2017-02-09T06:17:05.284Z,21.37
2017-02-09T06:18:18.390Z,21.33
2017-02-09T06:19:31.698Z,21.34
2017-02-09T06:20:44.810Z,21.37
2017-02-09T06:21:57.918Z,21.34
2017-02-09T06:23:24.119Z,21.28
2017-02-09T06:24:37.228Z,21.33
2017-02-09T06:25:50.339Z,21.4
2017-02-09T06:27:03.443Z,21.31
2017-02-09T06:28:15.995Z,21.34
2017-02-09T06:29:29.302Z,21.33
2017-02-09T06:30:42.412Z,21.31
2017-02-09T06:31:55.525Z,21.31
2017-02-09T06:33:08.076Z,21.34
2017-02-09T06:34:21.185Z,21.31
2017-02-09T06:35:34.497Z,21.33
2017-02-09T06:36:47.605Z,21.31
2017-02-09T06:38:00.718Z,21.36
2017-02-09T06:39:13.832Z,21.38
2017-02-09T06:40:26.947Z,21.34
2017-02-09T06:41:54.067Z,21.36
2017-02-09T06:43:21.184Z,21.37
2017-02-09T06:44:34.293Z,21.38
2017-02-09T06:45:47.700Z,21.4
2017-02-09T06:47:00.808Z,21.4
2017-02-09T06:48:13.919Z,21.38
2017-02-09T06:49:27.027Z,21.4
2017-02-09T06:50:40.226Z,21.34
2017-02-09T06:52:07.454Z,21.37
2017-02-09T06:53:20.133Z,21.38
2017-02-09T06:58:51.931Z,21.42
2017-02-09T07:00:05.181Z,21.38
2017-02-09T07:01:18.420Z,21.37
2017-02-09T07:02:31.680Z,21.37
2017-02-09T07:03:45.123Z,21.36
2017-02-09T07:04:58.369Z,21.38
2017-02-09T07:06:11.619Z,21.4
2017-02-09T07:07:24.868Z,21.36
2017-02-09T07:08:38.117Z,21.45
2017-02-09T07:09:51.560Z,21.37
2017-02-09T07:11:04.811Z,21.38
2017-02-09T07:12:18.060Z,21.4
2017-02-09T07:13:31.310Z,21.34
2017-02-09T07:14:44.858Z,21.37
2017-02-09T07:15:58.102Z,21.37
2017-02-09T07:17:11.350Z,21.37
2017-02-09T07:18:24.594Z,21.38
2017-02-09T07:19:37.841Z,21.31
2017-02-09T07:20:51.387Z,21.33
2017-02-09T07:22:04.641Z,21.37
2017-02-09T07:23:17.318Z,21.38
2017-02-09T07:24:30.564Z,21.37
2017-02-09T07:25:43.810Z,21.36
2017-02-09T07:26:57.057Z,21.28
2017-02-09T07:28:09.740Z,21.33
2017-02-09T07:29:22.982Z,21.3
2017-02-09T07:30:36.233Z,21.33
2017-02-09T07:31:49.681Z,21.31
2017-02-09T07:33:01.788Z,21.33
2017-02-09T07:34:14.468Z,21.36
2017-02-09T07:35:27.718Z,21.33
2017-02-09T07:36:41.264Z,21.31
2017-02-09T07:37:54.511Z,21.31
2017-02-09T07:39:07.195Z,21.33
2017-02-09T07:40:20.439Z,21.34
2017-02-09T07:41:33.684Z,21.28
2017-02-09T07:42:46.931Z,21.28
2017-02-09T07:44:00.181Z,21.3
2017-02-09T07:45:13.428Z,21.27
2017-02-09T07:46:26.673Z,21.26
2017-02-09T07:47:40.220Z,21.24
2017-02-09T07:48:53.467Z,21.31
2017-02-09T07:50:06.715Z,21.33
2017-02-09T07:51:18.840Z,21.18
2017-02-09T07:52:32.089Z,21.16
2017-02-09T07:53:45.638Z,21.22
2017-02-09T07:54:58.887Z,21.26
2017-02-09T07:56:12.137Z,21.22
2017-02-09T07:57:25.417Z,21.16
2017-02-09T08:00:20.177Z,21.21
2017-02-09T08:01:32.855Z,21.22
2017-02-09T08:02:46.100Z,21.22
2017-02-09T08:03:59.646Z,21.28
2017-02-09T08:05:12.895Z,21.19
2017-02-09T08:06:25.575Z,21.21
2017-02-09T08:07:38.826Z,21.19
2017-02-09T08:08:52.271Z,21.15
2017-02-09T08:10:05.521Z,21.18
2017-02-09T08:11:18.767Z,21.19
2017-02-09T08:12:32.015Z,21.3
2017-02-09T08:13:44.695Z,21.26
2017-02-09T08:14:58.141Z,21.28
2017-02-09T08:16:09.686Z,21.21
2017-02-09T08:17:22.932Z,21.24
2017-02-09T08:18:35.613Z,21.22
2017-02-09T08:19:49.059Z,21.13
2017-02-09T08:21:02.310Z,21.28
2017-02-09T08:22:14.418Z,21.16
2017-02-09T08:23:27.666Z,21.16
2017-02-09T08:24:40.346Z,21.12
2017-02-09T08:25:53.594Z,21.21
2017-02-09T08:27:20.821Z,21.06
2017-02-09T08:28:34.064Z,21.09
2017-02-09T08:31:14.617Z,21.11
2017-02-09T08:32:27.864Z,21.09
2017-02-09T08:33:41.108Z,21.09
2017-02-09T08:34:54.355Z,21.11
2017-02-09T08:36:07.603Z,21.11
2017-02-09T08:37:20.882Z,21.09
2017-02-09T08:38:34.161Z,21.12
2017-02-09T08:39:47.408Z,21.09
2017-02-09T08:41:00.858Z,21.11
2017-02-09T08:42:14.111Z,21.06
2017-02-09T08:43:27.358Z,21.12
2017-02-09T08:44:40.606Z,21.03
2017-02-09T08:45:53.488Z,21.06
2017-02-09T08:47:06.736Z,21.12
2017-02-09T08:48:19.981Z,21.09
2017-02-09T08:49:33.230Z,21.03
2017-02-09T08:50:45.908Z,21.12
2017-02-09T08:51:58.781Z,21.09
2017-02-09T08:53:11.460Z,21.08
2017-02-09T08:54:24.707Z,21.08
2017-02-09T08:55:37.385Z,21.11
2017-02-09T08:56:50.930Z,21.05
2017-02-09T08:58:04.181Z,21.11
2017-02-09T08:59:16.292Z,21.11
2017-02-09T09:00:28.976Z,21.06
2017-02-09T09:01:41.654Z,21.12
2017-02-09T09:02:55.204Z,21.09
2017-02-09T09:04:08.465Z,21.16
2017-02-09T09:05:21.141Z,21.13
2017-02-09T09:06:34.391Z,21.16
2017-02-09T09:07:47.936Z,21.11
2017-02-09T09:09:01.184Z,21.05
2017-02-09T09:10:14.431Z,21.08
2017-02-09T09:11:27.671Z,21.08
2017-02-09T09:12:40.925Z,21.08
2017-02-09T09:13:53.608Z,21.15
2017-02-09T09:15:06.857Z,21.05
2017-02-09T09:16:18.965Z,21.11
2017-02-09T09:17:32.215Z,21.11
2017-02-09T09:18:44.325Z,21.19
2017-02-09T09:19:57.008Z,21.08
2017-02-09T09:21:10.257Z,21.05
2017-02-09T09:22:23.514Z,21.08
2017-02-09T09:23:36.195Z,21.13
2017-02-09T09:24:49.644Z,21.21
2017-02-09T09:26:02.888Z,21.18
2017-02-09T09:27:15.561Z,21.05
2017-02-09T09:28:28.813Z,21.12
2017-02-09T09:29:56.039Z,21.03
2017-02-09T09:31:09.317Z,21.05
2017-02-09T09:32:22.559Z,21.03
2017-02-09T09:33:35.816Z,21.18
2017-02-09T09:34:47.925Z,21.11
2017-02-09T09:36:01.172Z,21.08
2017-02-09T09:37:13.851Z,21.21
2017-02-09T09:39:54.527Z,21.19
2017-02-09T09:41:07.774Z,21.22
2017-02-09T09:42:19.897Z,21.21
2017-02-09T09:43:33.143Z,21.28
2017-02-09T09:44:46.393Z,21.27
2017-02-09T09:45:59.955Z,21.22
2017-02-09T09:47:12.636Z,21.31
2017-02-09T09:48:25.918Z,21.3
2017-02-09T09:49:38.598Z,21.31
2017-02-09T09:50:52.150Z,21.24
2017-02-09T09:52:05.397Z,21.34
2017-02-09T09:53:18.646Z,21.31
2017-02-09T09:54:31.322Z,21.33
2017-02-09T09:55:44.569Z,21.36
2017-02-09T09:56:58.117Z,21.33
2017-02-09T09:58:11.370Z,21.36
2017-02-09T09:59:24.618Z,21.45
2017-02-09T10:00:37.864Z,21.42
2017-02-09T10:03:17.974Z,21.55
2017-02-09T10:04:30.655Z,21.53
2017-02-09T10:05:43.339Z,21.55
2017-02-09T10:06:56.587Z,21.55
2017-02-09T10:08:23.816Z,21.67
2017-02-09T10:09:37.061Z,21.66
2017-02-09T10:10:50.321Z,21.64
2017-02-09T10:12:03.776Z,21.64
2017-02-09T10:13:16.454Z,21.67
2017-02-09T10:14:29.136Z,21.64
2017-02-09T10:15:42.385Z,21.67
2017-02-09T10:16:55.633Z,21.73
2017-02-09T10:18:23.061Z,21.81
2017-02-09T10:19:36.312Z,21.79
2017-02-09T10:20:48.994Z,21.85
2017-02-09T10:22:02.245Z,21.9
2017-02-09T10:23:15.499Z,21.9
2017-02-09T10:24:28.757Z,21.96
2017-02-09T10:25:41.510Z,21.93
2017-02-09T10:26:54.751Z,22.04
2017-02-09T10:28:07.631Z,22.08
2017-02-09T10:29:18.603Z,22.06
2017-02-09T10:30:31.283Z,22.06
2017-02-09T10:31:44.524Z,22.02
2017-02-09T10:32:57.206Z,22.15
2017-02-09T10:34:10.462Z,22.15
2017-02-09T10:35:23.638Z,22.17
2017-02-09T10:36:36.186Z,22.19
2017-02-09T10:37:49.295Z,22.12
2017-02-09T10:39:16.613Z,22.09
2017-02-09T10:40:29.725Z,22.11
2017-02-09T10:41:42.835Z,22.21
2017-02-09T10:42:55.945Z,22.33
2017-02-09T10:44:09.053Z,22.29
2017-02-09T10:45:22.161Z,22.35
2017-02-09T10:46:35.270Z,22.36
2017-02-09T10:47:48.381Z,22.36
2017-02-09T10:49:01.487Z,22.36
2017-02-09T10:50:14.794Z,22.42
2017-02-09T10:51:27.346Z,22.42
2017-02-09T10:52:40.454Z,22.48
2017-02-09T10:53:53.005Z,22.49
2017-02-09T10:55:05.292Z,22.6
2017-02-09T10:56:18.405Z,22.56
2017-02-09T10:57:31.515Z,22.57
2017-02-09T10:58:44.066Z,22.57
2017-02-09T10:59:56.621Z,22.69
2017-02-09T11:01:09.929Z,22.66
2017-02-09T11:02:22.479Z,22.72
2017-02-09T11:03:35.035Z,22.7
2017-02-09T11:04:48.153Z,22.74
2017-02-09T11:06:01.564Z,22.76
2017-02-09T11:07:14.697Z,22.82
2017-02-09T11:08:27.269Z,22.81
2017-02-09T11:09:40.403Z,22.75
2017-02-09T11:11:07.290Z,22.85
2017-02-09T11:12:19.922Z,22.85
2017-02-09T11:13:33.137Z,22.86
2017-02-09T11:14:45.886Z,22.88
2017-02-09T11:15:59.185Z,22.88
2017-02-09T11:17:12.600Z,22.94
2017-02-09T11:18:25.844Z,22.99
2017-02-09T11:19:39.081Z,23.06
2017-02-09T11:20:52.280Z,23.01
2017-02-09T11:23:32.807Z,23.18
2017-02-09T11:24:46.164Z,23.11
2017-02-09T11:25:59.604Z,23.22
2017-02-09T11:27:25.748Z,23.29
2017-02-09T11:28:39.095Z,23.32
2017-02-09T11:29:52.478Z,23.34
2017-02-09T11:32:32.304Z,23.35
2017-02-09T11:33:59.422Z,23.42
2017-02-09T11:35:11.413Z,23.39
2017-02-09T11:36:24.522Z,23.49
2017-02-09T11:37:37.833Z,23.6
2017-02-09T11:38:50.950Z,23.6
2017-02-09T11:40:04.066Z,23.56
2017-02-09T11:41:17.179Z,23.6
2017-02-09T11:42:30.298Z,23.59
2017-02-09T11:43:43.412Z,23.62
2017-02-09T11:44:56.522Z,23.6
2017-02-09T11:46:09.635Z,23.56
2017-02-09T11:47:22.186Z,23.54
2017-02-09T11:48:35.291Z,23.64
2017-02-09T11:49:48.403Z,23.64
2017-02-09T11:51:00.397Z,23.69
2017-02-09T11:52:13.507Z,23.69
2017-02-09T11:53:26.055Z,23.75
2017-02-09T11:54:39.173Z,23.71
2017-02-09T11:55:52.283Z,23.71
2017-02-09T11:57:05.390Z,23.74
2017-02-09T11:58:17.384Z,23.74
2017-02-09T11:59:29.938Z,23.75
2017-02-09T12:00:43.053Z,23.79
2017-02-09T12:01:56.175Z,23.81
2017-02-09T12:03:23.293Z,23.84
2017-02-09T12:04:37.039Z,23.93
2017-02-09T12:05:50.286Z,23.9
2017-02-09T12:07:03.534Z,23.97
2017-02-09T12:08:15.658Z,23.97
2017-02-09T12:09:28.909Z,24.04
2017-02-09T12:10:42.161Z,24.02
2017-02-09T12:11:55.412Z,24.06
2017-02-09T12:13:08.666Z,24.06
2017-02-09T12:14:21.925Z,24.14
2017-02-09T12:15:49.165Z,24.18
2017-02-09T12:17:02.430Z,24.18
2017-02-09T12:18:15.104Z,24.21
2017-02-09T12:19:28.352Z,24.24
2017-02-09T12:20:55.582Z,24.26
2017-02-09T12:22:08.830Z,24.21
2017-02-09T12:23:21.521Z,24.39
2017-02-09T12:24:34.773Z,24.52
2017-02-09T12:25:48.021Z,24.53
2017-02-09T12:27:01.271Z,24.63
2017-02-09T12:28:13.959Z,24.66
2017-02-09T12:29:27.234Z,24.74
2017-02-09T12:30:40.480Z,24.97
2017-02-09T12:31:53.162Z,24.97
2017-02-09T12:33:06.411Z,24.98
2017-02-09T12:34:19.660Z,25.11
2017-02-09T12:35:32.912Z,25.27
2017-02-09T12:36:46.365Z,25.36
2017-02-09T12:37:59.614Z,25.59
2017-02-09T12:39:11.166Z,25.82
2017-02-09T12:40:24.415Z,25.91
2017-02-09T12:41:37.670Z,26.16
2017-02-09T12:42:51.122Z,26.39
2017-02-09T12:44:04.375Z,26.59
2017-02-09T12:45:16.488Z,26.68
2017-02-09T12:46:29.738Z,26.81
2017-02-09T12:47:43.186Z,26.97
2017-02-09T12:49:09.861Z,27.33
2017-02-09T12:50:23.114Z,27.55
2017-02-09T12:51:36.371Z,27.74
2017-02-09T12:52:49.822Z,27.99
2017-02-09T12:54:03.074Z,28.14
2017-02-09T12:55:15.756Z,28.28
2017-02-09T12:56:29.011Z,28.32
2017-02-09T12:57:42.268Z,28.39
2017-02-09T12:58:55.823Z,28.43
2017-02-09T13:00:08.513Z,28.36
2017-02-09T13:01:35.183Z,28.73
2017-02-09T13:02:48.435Z,28.76
2017-02-09T13:04:00.558Z,28.79
2017-02-09T13:05:13.830Z,28.74
2017-02-09T13:06:26.565Z,28.77
2017-02-09T13:07:39.936Z,28.88
2017-02-09T13:08:53.269Z,29.03
2017-02-09T13:10:06.062Z,29.29
2017-02-09T13:11:18.793Z,29.44
2017-02-09T13:12:32.112Z,29.47
2017-02-09T13:13:45.418Z,29.47
2017-02-09T13:14:58.690Z,29.55
2017-02-09T13:16:11.423Z,29.71
2017-02-09T13:17:24.702Z,29.67
2017-02-09T13:18:37.961Z,29.64
2017-02-09T13:19:50.645Z,29.85
2017-02-09T13:21:03.896Z,29.92
2017-02-09T13:22:17.150Z,29.84
2017-02-09T13:23:30.403Z,29.85
2017-02-09T13:24:43.089Z,29.85
2017-02-09T13:26:10.326Z,29.74
2017-02-09T13:27:23.576Z,29.51
2017-02-09T13:28:36.839Z,29.32
2017-02-09T13:29:50.101Z,29.17
2017-02-09T13:31:03.352Z,28.98
2017-02-09T13:32:16.610Z,29.11
2017-02-09T13:33:29.296Z,29.32
2017-02-09T13:36:09.792Z,29.84
2017-02-09T13:37:22.476Z,30.04
2017-02-09T13:38:35.731Z,30.04
2017-02-09T13:39:48.989Z,30.11
2017-02-09T13:41:01.878Z,30.03
2017-02-09T13:42:15.131Z,30.07
2017-02-09T13:43:27.816Z,30.26
2017-02-09T13:44:41.069Z,30.44
2017-02-09T13:46:07.935Z,30.1
2017-02-09T13:47:21.192Z,29.73
2017-02-09T13:48:34.446Z,29.6
2017-02-09T13:49:47.699Z,29.45
2017-02-09T13:51:00.384Z,29.51
2017-02-09T13:52:13.073Z,29.64
2017-02-09T13:53:26.329Z,29.7
2017-02-09T13:54:39.018Z,29.64
2017-02-09T13:55:52.279Z,29.48
2017-02-09T13:57:05.838Z,29.57
2017-02-09T13:58:17.957Z,29.55
2017-02-09T13:59:45.200Z,29.66
2017-02-09T14:00:56.750Z,29.51
2017-02-09T14:02:09.639Z,29.41
2017-02-09T14:03:22.325Z,29.44
2017-02-09T14:06:02.818Z,29.73
2017-02-09T14:07:15.506Z,29.71
2017-02-09T14:08:28.757Z,29.85
2017-02-09T14:09:55.996Z,30.1
2017-02-09T14:11:09.250Z,30.25
2017-02-09T14:12:22.505Z,30.4
2017-02-09T14:13:35.791Z,30.48
2017-02-09T14:14:49.051Z,30.83
2017-02-09T14:16:02.323Z,30.97
2017-02-09T14:17:16.413Z,31.03
2017-02-09T14:18:29.676Z,31.2
2017-02-09T14:21:09.434Z,30.96
2017-02-09T14:22:22.761Z,30.88
2017-02-09T14:23:35.888Z,30.81
2017-02-09T14:24:49.007Z,30.4
2017-02-09T14:26:02.131Z,30.13
2017-02-09T14:27:15.253Z,30.4
2017-02-09T14:28:28.582Z,30.19
2017-02-09T14:29:41.702Z,29.91
2017-02-09T14:30:54.826Z,29.84
2017-02-09T14:32:07.396Z,29.6
2017-02-09T14:33:19.416Z,29.64
2017-02-09T14:34:32.558Z,29.71
2017-02-09T14:35:45.705Z,29.62
2017-02-09T14:36:58.846Z,29.35
2017-02-09T14:38:11.973Z,28.95
2017-02-09T14:39:25.390Z,28.8
2017-02-09T14:40:52.515Z,28.76
2017-02-09T14:42:05.071Z,28.94
2017-02-09T14:43:17.067Z,29
2017-02-09T14:44:30.183Z,28.89
2017-02-09T14:45:43.315Z,28.58
2017-02-09T14:46:56.440Z,28.33
2017-02-09T14:48:09.569Z,28.13
2017-02-09T14:49:22.679Z,27.96
2017-02-09T14:50:36.111Z,27.72
2017-02-09T14:51:49.231Z,27.91
2017-02-09T14:54:43.486Z,28.23
2017-02-09T14:56:10.611Z,28.39
2017-02-09T14:57:23.163Z,28.48
2017-02-09T14:58:36.275Z,28.51
2017-02-09T14:59:49.392Z,28.67
2017-02-09T15:01:15.957Z,28.61
2017-02-09T15:02:29.113Z,28.55
2017-02-09T15:03:42.229Z,28.54
2017-02-09T15:04:55.721Z,28.39
2017-02-09T15:06:08.981Z,28.08
2017-02-09T15:07:22.234Z,28.21
2017-02-09T15:08:35.487Z,28.48
2017-02-09T15:09:48.749Z,28.74
2017-02-09T15:11:02.304Z,28.77
2017-02-09T15:12:14.988Z,28.69
2017-02-09T15:13:28.240Z,28.76
2017-02-09T15:14:41.498Z,28.77
2017-02-09T15:15:55.153Z,28.72
2017-02-09T15:17:08.417Z,28.42
2017-02-09T15:18:21.104Z,27.9
2017-02-09T15:19:34.359Z,27.77
2017-02-09T15:20:47.617Z,27.9
2017-02-09T15:22:01.075Z,28.03
2017-02-09T15:23:14.322Z,28.28
2017-02-09T15:24:27.575Z,28.21
2017-02-09T15:25:40.258Z,28.32
2017-02-09T15:26:53.808Z,28.45
2017-02-09T15:28:07.061Z,28.43
2017-02-09T15:29:19.173Z,28.23
2017-02-09T15:30:32.431Z,28.2
2017-02-09T15:31:45.687Z,28.11
2017-02-09T15:32:58.371Z,27.95
2017-02-09T15:34:11.058Z,27.93
2017-02-09T15:35:38.295Z,27.9
2017-02-09T15:37:05.536Z,27.59
2017-02-09T15:38:18.393Z,27.39
2017-02-09T15:39:31.650Z,27.45
2017-02-09T15:40:44.905Z,27.5
2017-02-09T15:41:58.161Z,27.38
2017-02-09T15:43:11.418Z,27.33
2017-02-09T15:44:24.669Z,27.16
2017-02-09T15:45:37.925Z,27.06
2017-02-09T15:46:51.184Z,26.97
2017-02-09T15:48:04.437Z,27.16
2017-02-09T15:49:17.048Z,27.18
2017-02-09T15:50:30.163Z,27.13
2017-02-09T15:51:43.280Z,27.16
2017-02-09T15:52:56.392Z,27.15
2017-02-09T15:54:09.509Z,27.09
2017-02-09T15:55:22.065Z,26.97
2017-02-09T15:56:34.061Z,27.09
2017-02-09T15:57:47.178Z,27.11
2017-02-09T15:59:00.288Z,27.05
2017-02-09T16:01:40.531Z,26.94
2017-02-09T16:02:53.644Z,26.93
2017-02-09T16:04:06.758Z,27.08
2017-02-09T16:05:19.873Z,26.9
2017-02-09T16:06:32.993Z,26.98
2017-02-09T16:07:45.550Z,27.13
2017-02-09T16:08:58.881Z,27.11
2017-02-09T16:11:39.386Z,26.97
2017-02-09T16:12:52.508Z,26.78
2017-02-09T16:14:05.618Z,26.69
2017-02-09T16:15:17.058Z,26.72
2017-02-09T16:16:30.168Z,26.73
2017-02-09T16:17:43.282Z,26.83
2017-02-09T16:18:56.395Z,26.69
2017-02-09T16:20:23.260Z,26.65
2017-02-09T16:21:36.375Z,26.6
2017-02-09T16:22:49.494Z,26.57